Time;durP1;ratioP1;P1;durP2;ratioP2;P2;SDS_P1;SDS_P2;PMS_P1;PMS_P2;Temp;Humidity;BMP_temperature;BMP_pressure;BME280_temperature;BME280_humidity;BME280_pressure;Samples;Min_cycle;Max_cycle;Signal;HPM_P1;HPM_P2
2022/06/27 00:00:51;;;;;;;3.50;2.13;;;;;;;;;;4830373;29;20329;-76
2022/06/27 00:03:17;;;;;;;4.60;2.28;;;;;;;;;;4834851;29;20321;-76
2022/06/27 00:05:42;;;;;;;7.97;2.35;;;;;;;;;;4832618;29;20054;-76
2022/06/27 00:08:08;;;;;;;4.32;2.40;;;;;;;;;;4833372;29;20113;-75
2022/06/27 00:10:34;;;;;;;2.45;2.03;;;;;;;;;;4835152;29;20041;-75
2022/06/27 00:12:59;;;;;;;5.68;2.30;;;;;;;;;;4822408;29;20030;-76
2022/06/27 00:15:26;;;;;;;7.22;3.45;;;;;;;;;;4829179;29;20517;-75
2022/06/27 00:17:51;;;;;;;3.70;2.10;;;;;;;;;;4816029;29;20723;-74
2022/06/27 00:20:17;;;;;;;4.20;2.10;;;;;;;;;;4832371;29;20081;-73
2022/06/27 00:22:42;;;;;;;2.60;1.92;;;;;;;;;;4832879;29;20037;-74
2022/06/27 00:25:09;;;;;;;2.33;1.85;;;;;;;;;;4834118;29;20534;-74
2022/06/27 00:27:35;;;;;;;3.60;2.13;;;;;;;;;;4837043;29;20038;-76
2022/06/27 00:30:00;;;;;;;2.40;2.10;;;;;;;;;;4837907;29;20045;-77
2022/06/27 00:32:26;;;;;;;5.00;2.33;;;;;;;;;;4839129;29;20069;-76
2022/06/27 00:34:53;;;;;;;4.93;2.38;;;;;;;;;;4837872;29;20392;-75
2022/06/27 00:37:19;;;;;;;3.30;2.58;;;;;;;;;;4843402;29;20037;-76
2022/06/27 00:39:44;;;;;;;3.03;2.50;;;;;;;;;;4839276;29;20411;-76
2022/06/27 00:42:10;;;;;;;3.88;2.47;;;;;;;;;;4840638;29;20038;-76
2022/06/27 00:44:43;;;;;;;5.65;2.70;;;;;;;;;;4843321;29;20390;-76
2022/06/27 00:47:11;;;;;;;2.97;2.67;;;;;;;;;;4839758;29;20037;-76
2022/06/27 00:49:37;;;;;;;4.30;2.40;;;;;;;;;;4841387;29;20531;-76
2022/06/27 00:52:04;;;;;;;2.50;2.30;;;;;;;;;;4842869;29;20042;-77
2022/06/27 00:54:29;;;;;;;3.53;2.47;;;;;;;;;;4843436;29;20110;-76
2022/06/27 00:56:55;;;;;;;2.78;2.55;;;;;;;;;;4843205;29;20070;-76
2022/06/27 00:59:22;;;;;;;3.38;2.90;;;;;;;;;;4823622;29;20130;-74
2022/06/27 01:01:48;;;;;;;4.97;3.00;;;;;;;;;;4842535;29;20034;-74
2022/06/27 01:04:14;;;;;;;6.40;3.50;;;;;;;;;;4835800;29;20030;-75
2022/06/27 01:06:39;;;;;;;6.00;3.20;;;;;;;;;;4826774;29;20046;-75
2022/06/27 01:09:05;;;;;;;5.32;3.95;;;;;;;;;;4840186;29;20049;-76
2022/06/27 01:11:31;;;;;;;7.32;3.90;;;;;;;;;;4840181;29;20045;-75
2022/06/27 01:13:57;;;;;;;11.07;4.72;;;;;;;;;;4837671;29;20022;-75
2022/06/27 01:16:23;;;;;;;9.45;4.18;;;;;;;;;;4821211;29;20030;-76
2022/06/27 01:18:48;;;;;;;5.93;4.20;;;;;;;;;;4845705;29;20045;-76
2022/06/27 01:21:21;;;;;;;5.85;4.07;;;;;;;;;;4840623;29;20452;-75
2022/06/27 01:23:47;;;;;;;9.23;4.60;;;;;;;;;;4846199;29;20074;-76
2022/06/27 01:26:12;;;;;;;8.85;4.68;;;;;;;;;;4839528;29;20502;-75
2022/06/27 01:28:38;;;;;;;7.13;4.78;;;;;;;;;;4843311;29;20037;-75
2022/06/27 01:31:03;;;;;;;7.20;4.35;;;;;;;;;;4837088;29;20695;-74
2022/06/27 01:33:29;;;;;;;6.45;4.38;;;;;;;;;;4842209;29;20130;-76
2022/06/27 01:36:41;;;;;;;6.40;4.10;;;;;;;;;;4838650;29;20053;-76
2022/06/27 01:38:39;;;;;;;15.45;4.22;;;;;;;;;;4840747;29;20044;-75
2022/06/27 01:41:05;;;;;;;6.95;3.65;;;;;;;;;;4840165;29;20050;-76
2022/06/27 01:43:31;;;;;;;5.75;3.53;;;;;;;;;;4839948;29;20026;-76
2022/06/27 01:45:56;;;;;;;7.10;3.58;;;;;;;;;;4839315;29;20046;-76
2022/06/27 01:48:23;;;;;;;7.25;3.40;;;;;;;;;;4838878;29;20052;-75
2022/06/27 01:50:50;;;;;;;6.30;3.35;;;;;;;;;;4834847;29;20098;-76
2022/06/27 01:53:16;;;;;;;6.25;3.53;;;;;;;;;;4820790;29;20050;-76
2022/06/27 01:55:42;;;;;;;4.70;3.58;;;;;;;;;;4818135;29;20034;-76
2022/06/27 01:58:08;;;;;;;6.72;3.72;;;;;;;;;;4835175;29;20061;-76
2022/06/27 02:00:33;;;;;;;6.25;3.65;;;;;;;;;;4818796;29;20598;-75
2022/06/27 02:03:05;;;;;;;6.55;3.30;;;;;;;;;;4833245;29;20077;-75
2022/06/27 02:05:32;;;;;;;5.90;3.80;;;;;;;;;;4840527;29;20050;-76
2022/06/27 02:07:59;;;;;;;7.78;3.45;;;;;;;;;;4836337;29;20475;-78
2022/06/27 02:10:25;;;;;;;6.32;3.10;;;;;;;;;;4836056;29;20034;-77
2022/06/27 02:12:51;;;;;;;6.63;3.08;;;;;;;;;;4838144;29;20046;-80
2022/06/27 02:15:16;;;;;;;4.43;3.28;;;;;;;;;;4820246;29;20050;-78
2022/06/27 02:17:41;;;;;;;6.78;3.40;;;;;;;;;;4841144;29;20046;-78
2022/06/27 02:20:07;;;;;;;7.38;3.42;;;;;;;;;;4841077;29;20521;-78
2022/06/27 02:22:33;;;;;;;4.78;3.20;;;;;;;;;;4840767;29;20033;-77
2022/06/27 02:24:58;;;;;;;4.25;3.70;;;;;;;;;;4840734;29;20043;-78
2022/06/27 02:27:24;;;;;;;6.25;3.78;;;;;;;;;;4841309;29;20085;-79
2022/06/27 02:29:50;;;;;;;4.15;3.75;;;;;;;;;;4836293;29;20503;-80
2022/06/27 02:32:16;;;;;;;6.00;3.83;;;;;;;;;;4842865;29;20045;-80
2022/06/27 02:34:42;;;;;;;4.65;3.55;;;;;;;;;;4832174;29;20034;-80
2022/06/27 02:37:08;;;;;;;5.28;3.45;;;;;;;;;;4842181;29;20034;-78
2022/06/27 02:39:36;;;;;;;4.35;3.33;;;;;;;;;;4850728;29;20118;-77
2022/06/27 02:42:03;;;;;;;5.80;3.80;;;;;;;;;;4847323;29;20034;-77
2022/06/27 02:44:29;;;;;;;6.75;3.80;;;;;;;;;;4847834;29;20045;-79
2022/06/27 02:46:55;;;;;;;5.78;3.95;;;;;;;;;;4845145;29;20368;-78
2022/06/27 02:49:20;;;;;;;5.65;4.18;;;;;;;;;;4849653;29;20044;-78
2022/06/27 02:52:02;;;;;;;4.20;3.80;;;;;;;;;;4846428;29;20034;-79
2022/06/27 02:54:39;;;;;;;5.45;4.18;;;;;;;;;;4842284;29;20038;-78
2022/06/27 02:57:14;;;;;;;5.53;3.92;;;;;;;;;;4843416;29;20097;-78
2022/06/27 02:59:41;;;;;;;5.63;4.00;;;;;;;;;;4847046;29;20039;-79
2022/06/27 03:02:09;;;;;;;4.95;4.47;;;;;;;;;;4838872;29;20435;-77
2022/06/27 03:04:34;;;;;;;5.88;4.55;;;;;;;;;;4836294;29;20031;-77
2022/06/27 03:07:00;;;;;;;7.47;5.07;;;;;;;;;;4842247;29;20094;-75
2022/06/27 03:09:25;;;;;;;7.25;4.88;;;;;;;;;;4838261;29;20069;-79
2022/06/27 03:11:51;;;;;;;6.63;4.60;;;;;;;;;;4838273;29;20128;-78
2022/06/27 03:14:16;;;;;;;5.30;4.78;;;;;;;;;;4841060;29;20503;-75
2022/06/27 03:16:42;;;;;;;6.63;4.90;;;;;;;;;;4825446;29;20038;-79
2022/06/27 03:19:08;;;;;;;6.05;4.65;;;;;;;;;;4837490;29;20174;-75
2022/06/27 03:21:33;;;;;;;5.70;4.95;;;;;;;;;;4839837;29;20141;-75
2022/06/27 03:24:00;;;;;;;6.57;5.18;;;;;;;;;;4838996;29;20046;-74
2022/06/27 03:26:25;;;;;;;10.85;5.45;;;;;;;;;;4839721;29;20045;-77
2022/06/27 03:28:51;;;;;;;9.45;5.90;;;;;;;;;;4840104;29;20410;-78
2022/06/27 03:31:16;;;;;;;8.32;5.53;;;;;;;;;;4837413;29;20168;-79
2022/06/27 03:33:42;;;;;;;8.05;5.05;;;;;;;;;;4828230;29;20033;-78
2022/06/27 03:36:08;;;;;;;5.43;4.47;;;;;;;;;;4839958;29;20045;-79
2022/06/27 03:38:33;;;;;;;6.45;4.60;;;;;;;;;;4841304;29;20575;-77
2022/06/27 03:40:59;;;;;;;6.80;4.68;;;;;;;;;;4824342;29;20045;-78
2022/06/27 03:43:25;;;;;;;5.90;4.28;;;;;;;;;;4839827;29;20038;-80
2022/06/27 03:45:50;;;;;;;8.27;4.45;;;;;;;;;;4842889;29;20056;-79
2022/06/27 03:51:00;;;;;;;5.43;4.15;;;;;;;;;;4840314;29;20089;-79
2022/06/27 03:53:25;;;;;;;7.25;4.70;;;;;;;;;;4839642;29;20466;-78
2022/06/27 03:55:50;;;;;;;6.78;5.30;;;;;;;;;;4843858;29;20037;-78
2022/06/27 03:58:16;;;;;;;7.18;5.07;;;;;;;;;;4822204;29;20037;-78
2022/06/27 04:00:41;;;;;;;9.70;5.72;;;;;;;;;;4838471;29;20141;-79
2022/06/27 04:03:07;;;;;;;8.52;5.55;;;;;;;;;;4836739;29;20393;-79
2022/06/27 04:05:32;;;;;;;5.90;5.35;;;;;;;;;;4838342;29;20158;-78
2022/06/27 04:07:57;;;;;;;6.25;5.50;;;;;;;;;;4836756;29;20049;-79
2022/06/27 04:10:23;;;;;;;7.50;5.57;;;;;;;;;;4839242;29;20459;-78
2022/06/27 04:12:48;;;;;;;11.23;5.70;;;;;;;;;;4834500;29;20050;-79
2022/06/27 04:15:14;;;;;;;7.47;6.53;;;;;;;;;;4835108;29;20106;-75
2022/06/27 04:17:39;;;;;;;9.95;6.28;;;;;;;;;;4840102;29;20079;-80
2022/06/27 04:20:05;;;;;;;8.93;6.05;;;;;;;;;;4835457;29;20044;-79
2022/06/27 04:22:31;;;;;;;12.73;6.53;;;;;;;;;;4834413;29;20030;-77
2022/06/27 04:25:00;;;;;;;7.93;6.18;;;;;;;;;;4840547;29;20053;-78
2022/06/27 04:27:27;;;;;;;8.30;6.35;;;;;;;;;;4840304;29;20030;-78
2022/06/27 04:29:53;;;;;;;6.50;5.80;;;;;;;;;;4843980;29;20090;-79
2022/06/27 04:32:20;;;;;;;8.27;5.55;;;;;;;;;;4842373;29;20038;-75
2022/06/27 04:34:45;;;;;;;8.63;6.38;;;;;;;;;;4846627;29;20033;-80
2022/06/27 04:37:11;;;;;;;7.43;5.72;;;;;;;;;;4844294;29;20493;-79
2022/06/27 04:39:37;;;;;;;9.32;6.90;;;;;;;;;;4840869;29;20137;-78
2022/06/27 04:42:04;;;;;;;8.25;6.30;;;;;;;;;;4845326;29;20050;-81
2022/06/27 04:44:29;;;;;;;8.30;6.47;;;;;;;;;;4848026;29;20049;-79
2022/06/27 04:46:56;;;;;;;9.48;6.10;;;;;;;;;;4848637;29;20040;-80
2022/06/27 04:49:22;;;;;;;10.32;6.28;;;;;;;;;;4843061;29;20030;-79
2022/06/27 04:51:51;;;;;;;13.25;6.82;;;;;;;;;;4822611;29;21646;-78
2022/06/27 04:54:18;;;;;;;10.95;6.70;;;;;;;;;;4843135;29;20470;-79
2022/06/27 04:56:44;;;;;;;6.95;6.10;;;;;;;;;;4840438;29;20118;-79
2022/06/27 04:59:11;;;;;;;7.40;5.65;;;;;;;;;;4848226;29;20578;-78
2022/06/27 05:01:37;;;;;;;9.13;5.85;;;;;;;;;;4843462;29;20054;-78
2022/06/27 05:04:03;;;;;;;10.15;5.93;;;;;;;;;;4843078;29;20046;-77
2022/06/27 05:06:29;;;;;;;7.25;5.95;;;;;;;;;;4841709;29;20415;-78
2022/06/27 05:08:55;;;;;;;11.20;6.38;;;;;;;;;;4841837;29;20043;-78
2022/06/27 05:11:20;;;;;;;12.93;5.95;;;;;;;;;;4843355;29;20053;-78
2022/06/27 05:13:45;;;;;;;10.18;5.90;;;;;;;;;;4824478;29;20033;-77
2022/06/27 05:16:11;;;;;;;8.85;5.80;;;;;;;;;;4842078;29;20026;-78
2022/06/27 05:18:37;;;;;;;13.23;5.60;;;;;;;;;;4840332;29;20041;-76
2022/06/27 05:21:02;;;;;;;7.63;5.47;;;;;;;;;;4837530;29;20053;-80
2022/06/27 05:23:28;;;;;;;6.22;5.38;;;;;;;;;;4846527;29;20041;-78
2022/06/27 05:25:53;;;;;;;7.72;4.95;;;;;;;;;;4839642;29;20098;-77
2022/06/27 05:28:19;;;;;;;7.03;5.80;;;;;;;;;;4838558;29;20037;-79
2022/06/27 05:30:44;;;;;;;10.35;5.75;;;;;;;;;;4837885;29;20038;-77
2022/06/27 05:33:10;;;;;;;12.23;5.70;;;;;;;;;;4845068;29;20410;-78
2022/06/27 05:35:36;;;;;;;10.68;6.13;;;;;;;;;;4846438;29;20034;-79
2022/06/27 05:38:01;;;;;;;11.10;5.93;;;;;;;;;;4842968;29;20315;-77
2022/06/27 05:40:27;;;;;;;10.18;6.68;;;;;;;;;;4841892;29;20125;-78
2022/06/27 05:42:54;;;;;;;8.90;6.13;;;;;;;;;;4839170;29;20064;-78
2022/06/27 05:45:21;;;;;;;9.05;6.20;;;;;;;;;;4840624;29;20046;-77
2022/06/27 05:47:46;;;;;;;8.32;5.82;;;;;;;;;;4841145;29;20049;-79
2022/06/27 05:50:13;;;;;;;12.32;6.13;;;;;;;;;;4844554;29;20046;-79
2022/06/27 05:52:39;;;;;;;8.50;6.00;;;;;;;;;;4840853;29;20034;-77
2022/06/27 05:55:06;;;;;;;8.73;5.20;;;;;;;;;;4837062;29;20380;-77
2022/06/27 05:57:32;;;;;;;7.68;5.60;;;;;;;;;;4841736;29;20507;-77
2022/06/27 05:59:58;;;;;;;8.45;5.30;;;;;;;;;;4840457;29;20061;-77
2022/06/27 06:02:25;;;;;;;5.55;4.80;;;;;;;;;;4844731;29;20045;-77
2022/06/27 06:04:53;;;;;;;4.95;4.45;;;;;;;;;;4842202;29;20646;-77
2022/06/27 06:07:21;;;;;;;6.78;4.10;;;;;;;;;;4841369;29;20530;-77
2022/06/27 06:09:46;;;;;;;6.65;4.28;;;;;;;;;;4844412;29;20143;-78
2022/06/27 06:12:12;;;;;;;4.15;3.83;;;;;;;;;;4843797;29;20045;-78
2022/06/27 06:14:38;;;;;;;8.60;4.18;;;;;;;;;;4843931;29;20054;-78
2022/06/27 06:17:04;;;;;;;4.60;3.97;;;;;;;;;;4843768;29;20534;-78
2022/06/27 06:19:31;;;;;;;6.50;3.88;;;;;;;;;;4845482;29;20092;-78
2022/06/27 06:21:57;;;;;;;5.47;3.83;;;;;;;;;;4838855;29;20042;-78
2022/06/27 06:24:24;;;;;;;8.50;4.68;;;;;;;;;;4842532;29;20054;-79
2022/06/27 06:26:52;;;;;;;8.00;4.03;;;;;;;;;;4839466;29;20128;-77
2022/06/27 06:29:18;;;;;;;8.45;4.15;;;;;;;;;;4843385;29;20053;-78
2022/06/27 06:31:45;;;;;;;7.70;4.32;;;;;;;;;;4844710;29;20486;-78
2022/06/27 06:34:14;;;;;;;4.55;4.03;;;;;;;;;;4844759;29;20038;-79
2022/06/27 06:36:41;;;;;;;5.45;4.07;;;;;;;;;;4845171;29;20064;-77
2022/06/27 06:39:08;;;;;;;5.18;3.83;;;;;;;;;;4845646;29;20033;-78
2022/06/27 06:41:35;;;;;;;7.35;3.83;;;;;;;;;;4853054;29;20045;-75
2022/06/27 06:44:03;;;;;;;4.53;3.30;;;;;;;;;;4850316;29;20026;-76
2022/06/27 06:46:30;;;;;;;6.65;3.53;;;;;;;;;;4846127;29;20033;-79
2022/06/27 06:48:58;;;;;;;5.35;3.65;;;;;;;;;;4842935;29;20342;-78
2022/06/27 06:51:24;;;;;;;7.75;3.65;;;;;;;;;;4846153;29;20069;-78
2022/06/27 06:53:50;;;;;;;4.93;2.80;;;;;;;;;;4851259;29;20599;-78
2022/06/27 06:56:16;;;;;;;4.05;2.85;;;;;;;;;;4848843;29;20485;-80
2022/06/27 06:58:41;;;;;;;7.10;3.00;;;;;;;;;;4845408;29;20140;-81
2022/06/27 07:01:07;;;;;;;3.65;2.38;;;;;;;;;;4841185;29;20039;-78
2022/06/27 07:03:33;;;;;;;2.53;2.00;;;;;;;;;;4835400;29;20673;-76
2022/06/27 07:05:59;;;;;;;4.07;2.00;;;;;;;;;;4836529;29;20046;-79
2022/06/27 07:08:24;;;;;;;3.63;2.20;;;;;;;;;;4839083;29;20403;-78
2022/06/27 07:10:50;;;;;;;2.72;2.20;;;;;;;;;;4841961;29;20064;-75
2022/06/27 07:13:15;;;;;;;3.88;2.17;;;;;;;;;;4843067;29;20030;-77
2022/06/27 07:15:45;;;;;;;4.30;1.98;;;;;;;;;;4840164;29;20079;-79
2022/06/27 07:18:12;;;;;;;4.38;1.83;;;;;;;;;;4839304;29;20038;-78
2022/06/27 07:20:37;;;;;;;3.88;2.00;;;;;;;;;;4841703;29;20189;-74
2022/06/27 07:23:04;;;;;;;6.18;2.60;;;;;;;;;;4840835;29;20453;-80
2022/06/27 07:25:30;;;;;;;4.20;2.40;;;;;;;;;;4832567;29;20042;-78
2022/06/27 07:27:59;;;;;;;2.55;2.00;;;;;;;;;;4840378;29;20058;-80
2022/06/27 07:30:24;;;;;;;2.28;2.08;;;;;;;;;;4830174;29;20042;-80
2022/06/27 07:32:50;;;;;;;3.60;2.20;;;;;;;;;;4840258;29;20869;-79
2022/06/27 07:35:16;;;;;;;2.70;2.30;;;;;;;;;;4829195;29;20042;-79
2022/06/27 07:37:51;;;;;;;4.10;2.00;;;;;;;;;;4840754;29;20034;-77
2022/06/27 07:40:22;;;;;;;3.20;2.00;;;;;;;;;;4842771;29;20069;-79
2022/06/27 07:42:49;;;;;;;2.55;2.05;;;;;;;;;;4841364;29;20046;-78
2022/06/27 07:45:15;;;;;;;4.68;2.28;;;;;;;;;;4842723;29;20053;-78
2022/06/27 07:47:44;;;;;;;4.82;2.40;;;;;;;;;;4839874;29;20049;-80
2022/06/27 07:50:11;;;;;;;3.55;1.83;;;;;;;;;;4841723;29;20117;-78
2022/06/27 07:55:24;;;;;;;4.95;1.83;;;;;;;;;;4839205;29;20407;-76
2022/06/27 07:57:52;;;;;;;2.05;1.38;;;;;;;;;;4839341;29;20293;-77
2022/06/27 08:00:18;;;;;;;2.38;1.98;;;;;;;;;;4835279;29;20073;-78
2022/06/27 08:02:43;;;;;;;4.88;1.92;;;;;;;;;;4835570;29;20037;-77
2022/06/27 08:05:10;;;;;;;3.83;1.70;;;;;;;;;;4830738;29;20050;-76
2022/06/27 08:07:36;;;;;;;4.47;2.28;;;;;;;;;;4832393;29;20034;-75
2022/06/27 08:10:03;;;;;;;2.85;1.58;;;;;;;;;;4838639;29;20046;-77
2022/06/27 08:12:31;;;;;;;2.45;1.48;;;;;;;;;;4838652;29;20049;-77
2022/06/27 08:14:56;;;;;;;2.92;1.58;;;;;;;;;;4821382;29;20597;-78
2022/06/27 08:17:23;;;;;;;2.75;1.60;;;;;;;;;;4834816;29;20384;-78
2022/06/27 08:19:49;;;;;;;2.92;1.70;;;;;;;;;;4835706;29;20030;-78
2022/06/27 08:22:14;;;;;;;3.85;1.67;;;;;;;;;;4833920;29;20026;-76
2022/06/27 08:24:40;;;;;;;2.45;1.65;;;;;;;;;;4833599;29;20050;-79
2022/06/27 08:27:07;;;;;;;1.90;1.70;;;;;;;;;;4833788;29;20499;-78
2022/06/27 08:29:32;;;;;;;2.63;1.50;;;;;;;;;;4837861;29;20050;-75
2022/06/27 08:31:59;;;;;;;5.05;1.42;;;;;;;;;;4837427;29;20044;-78
2022/06/27 08:34:24;;;;;;;3.22;1.58;;;;;;;;;;4840848;29;20014;-80
2022/06/27 08:36:51;;;;;;;2.55;1.30;;;;;;;;;;4841433;29;20186;-78
2022/06/27 08:39:17;;;;;;;2.65;1.50;;;;;;;;;;4842906;29;20026;-80
2022/06/27 08:41:46;;;;;;;3.38;1.40;;;;;;;;;;4841657;29;20050;-78
2022/06/27 08:44:13;;;;;;;2.30;1.30;;;;;;;;;;4822999;29;20038;-78
2022/06/27 08:46:40;;;;;;;2.15;1.38;;;;;;;;;;4841750;29;20038;-78
2022/06/27 08:49:06;;;;;;;2.72;1.30;;;;;;;;;;4840581;29;20050;-79
2022/06/27 08:51:33;;;;;;;1.60;1.40;;;;;;;;;;4838667;29;20038;-78
2022/06/27 08:53:59;;;;;;;2.97;1.45;;;;;;;;;;4843543;29;20038;-78
2022/06/27 08:56:24;;;;;;;3.67;1.30;;;;;;;;;;4841253;29;20048;-78
2022/06/27 08:58:51;;;;;;;5.93;1.50;;;;;;;;;;4829828;29;20509;-79
2022/06/27 09:01:22;;;;;;;1.73;1.25;;;;;;;;;;4839546;29;20061;-78
2022/06/27 09:04:00;;;;;;;1.60;1.20;;;;;;;;;;4831273;29;20072;-78
2022/06/27 09:06:46;;;;;;;3.97;1.73;;;;;;;;;;4839820;29;20046;-76
2022/06/27 09:09:15;;;;;;;1.80;1.35;;;;;;;;;;4822618;29;20582;-78
2022/06/27 09:11:42;;;;;;;2.60;1.40;;;;;;;;;;4836438;29;20073;-79
2022/06/27 09:14:30;;;;;;;2.05;1.38;;;;;;;;;;4839748;29;20045;-76
2022/06/27 09:16:57;;;;;;;3.58;1.40;;;;;;;;;;4838720;29;20602;-79
2022/06/27 09:19:47;;;;;;;6.25;1.40;;;;;;;;;;4840811;29;20025;-79
2022/06/27 09:22:15;;;;;;;1.67;1.20;;;;;;;;;;4841699;29;20167;-78
2022/06/27 09:25:04;;;;;;;1.92;1.25;;;;;;;;;;4845724;29;20038;-77
2022/06/27 09:27:44;;;;;;;1.23;1.13;;;;;;;;;;4841915;29;20049;-77
2022/06/27 09:30:22;;;;;;;2.60;1.20;;;;;;;;;;4840596;29;20073;-78
2022/06/27 09:32:49;;;;;;;3.90;1.25;;;;;;;;;;4842219;29;20042;-78
2022/06/27 09:35:26;;;;;;;3.72;1.70;;;;;;;;;;4838034;29;20042;-77
2022/06/27 09:37:57;;;;;;;6.78;1.35;;;;;;;;;;4842577;29;20033;-77
2022/06/27 09:40:24;;;;;;;3.70;1.85;;;;;;;;;;4838510;29;20120;-76
2022/06/27 09:42:53;;;;;;;1.38;1.27;;;;;;;;;;4841894;29;20050;-77
2022/06/27 09:45:21;;;;;;;3.10;1.77;;;;;;;;;;4837307;29;20160;-77
2022/06/27 09:47:47;;;;;;;3.10;1.20;;;;;;;;;;4840638;29;20045;-78
2022/06/27 09:50:15;;;;;;;2.17;1.30;;;;;;;;;;4838616;29;20034;-78
2022/06/27 09:52:40;;;;;;;2.22;1.30;;;;;;;;;;4839562;29;20040;-79
2022/06/27 09:55:08;;;;;;;1.42;1.33;;;;;;;;;;4838736;29;20042;-78
2022/06/27 09:57:34;;;;;;;3.33;1.60;;;;;;;;;;4842140;29;20073;-78
2022/06/27 10:00:00;;;;;;;1.40;1.10;;;;;;;;;;4839115;29;20074;-76
2022/06/27 10:02:26;;;;;;;2.67;1.40;;;;;;;;;;4839812;29;20088;-75
2022/06/27 10:04:51;;;;;;;1.35;1.20;;;;;;;;;;4835618;29;20573;-79
2022/06/27 10:07:18;;;;;;;1.48;1.10;;;;;;;;;;4843179;29;20116;-78
2022/06/27 10:09:45;;;;;;;2.70;1.00;;;;;;;;;;4839193;29;20129;-77
2022/06/27 10:12:27;;;;;;;2.28;1.20;;;;;;;;;;4840793;29;20034;-79
2022/06/27 10:15:10;;;;;;;3.30;1.50;;;;;;;;;;4823799;29;20506;-76
2022/06/27 10:17:46;;;;;;;3.10;1.20;;;;;;;;;;4840968;29;20038;-78
2022/06/27 10:20:29;;;;;;;4.78;1.50;;;;;;;;;;4838661;29;20034;-77
2022/06/27 10:23:04;;;;;;;5.57;1.80;;;;;;;;;;4838572;29;20037;-78
2022/06/27 10:25:33;;;;;;;4.03;1.70;;;;;;;;;;4838516;29;20037;-79
2022/06/27 10:28:07;;;;;;;2.15;1.77;;;;;;;;;;4837879;29;20058;-78
2022/06/27 10:30:43;;;;;;;3.10;1.65;;;;;;;;;;4840422;29;20041;-76
2022/06/27 10:33:18;;;;;;;4.22;1.75;;;;;;;;;;4838605;29;20117;-78
2022/06/27 10:36:11;;;;;;;3.38;2.10;;;;;;;;;;4844439;29;20585;-77
2022/06/27 10:38:39;;;;;;;4.45;2.38;;;;;;;;;;4839813;29;20041;-78
2022/06/27 10:41:09;;;;;;;2.95;2.40;;;;;;;;;;4852123;29;20069;-79
2022/06/27 10:43:46;;;;;;;3.45;2.58;;;;;;;;;;4844066;29;20462;-78
2022/06/27 10:46:13;;;;;;;3.33;2.45;;;;;;;;;;4842723;29;20066;-78
2022/06/27 10:48:40;;;;;;;5.18;2.75;;;;;;;;;;4842993;29;20046;-77
2022/06/27 10:51:18;;;;;;;5.68;2.47;;;;;;;;;;4832319;29;20057;-79
2022/06/27 10:53:46;;;;;;;5.40;2.35;;;;;;;;;;4840553;29;20468;-79
2022/06/27 10:56:26;;;;;;;4.80;1.98;;;;;;;;;;4846188;29;20033;-78
2022/06/27 10:58:52;;;;;;;2.25;2.00;;;;;;;;;;4846027;29;20060;-79
2022/06/27 11:01:18;;;;;;;3.53;2.60;;;;;;;;;;4830268;29;20025;-79
2022/06/27 11:03:44;;;;;;;5.57;2.38;;;;;;;;;;4843861;29;20072;-79
2022/06/27 11:06:13;;;;;;;4.45;2.60;;;;;;;;;;4843231;29;20070;-80
2022/06/27 11:08:40;;;;;;;2.10;1.90;;;;;;;;;;4822151;29;20045;-79
2022/06/27 11:11:06;;;;;;;4.15;1.60;;;;;;;;;;4840547;29;20130;-76
2022/06/27 11:14:07;;;;;;;1.70;1.60;;;;;;;;;;4840256;29;20059;-75
2022/06/27 11:16:33;;;;;;;3.00;1.50;;;;;;;;;;4810913;29;21589;-77
2022/06/27 11:20:04;;;;;;;1.70;1.60;;;;;;;;;;4834478;29;20129;-79
2022/06/27 11:21:49;;;;;;;1.67;1.20;;;;;;;;;;4843014;29;20065;-79
2022/06/27 11:24:15;;;;;;;3.33;1.80;;;;;;;;;;4838690;29;20041;-79
2022/06/27 11:26:46;;;;;;;2.70;1.70;;;;;;;;;;4843308;29;20101;-78
2022/06/27 11:32:08;;;;;;;2.50;1.48;;;;;;;;;;4844567;29;20044;-78
2022/06/27 11:34:39;;;;;;;1.73;1.42;;;;;;;;;;4840123;29;20044;-79
2022/06/27 11:37:11;;;;;;;4.78;1.60;;;;;;;;;;4841179;29;20599;-78
2022/06/27 11:39:36;;;;;;;4.55;1.67;;;;;;;;;;4843188;29;20380;-77
2022/06/27 11:42:09;;;;;;;2.78;1.73;;;;;;;;;;4841859;29;20052;-76
2022/06/27 11:44:37;;;;;;;1.90;1.55;;;;;;;;;;4838486;29;20129;-76
2022/06/27 11:47:08;;;;;;;7.70;1.55;;;;;;;;;;4836815;29;20041;-77
2022/06/27 11:49:38;;;;;;;1.42;0.98;;;;;;;;;;4839931;29;20037;-76
2022/06/27 11:52:12;;;;;;;1.42;1.15;;;;;;;;;;4840306;29;20040;-77
2022/06/27 11:54:37;;;;;;;1.30;1.20;;;;;;;;;;4842930;29;20120;-77
2022/06/27 11:57:03;;;;;;;1.52;1.17;;;;;;;;;;4837141;29;20125;-78
2022/06/27 11:59:32;;;;;;;2.33;1.25;;;;;;;;;;4839696;29;20087;-77
2022/06/27 12:02:07;;;;;;;3.45;1.10;;;;;;;;;;4838079;29;20518;-78
2022/06/27 12:04:37;;;;;;;1.83;1.10;;;;;;;;;;4843938;29;20037;-76
2022/06/27 12:07:07;;;;;;;3.35;1.33;;;;;;;;;;4824421;29;20057;-76
2022/06/27 12:09:46;;;;;;;3.65;1.45;;;;;;;;;;4843144;29;20566;-76
2022/06/27 12:12:17;;;;;;;5.28;1.10;;;;;;;;;;4841471;29;20038;-76
2022/06/27 12:14:46;;;;;;;1.77;1.20;;;;;;;;;;4839492;29;20053;-76
2022/06/27 12:17:12;;;;;;;2.22;1.25;;;;;;;;;;4845977;29;20038;-77
2022/06/27 12:19:37;;;;;;;2.20;1.05;;;;;;;;;;4842400;29;20037;-77
2022/06/27 12:22:03;;;;;;;2.72;1.23;;;;;;;;;;4809280;29;20128;-74
2022/06/27 12:24:28;;;;;;;1.65;1.20;;;;;;;;;;4839146;29;20123;-76
2022/06/27 12:26:53;;;;;;;1.92;1.00;;;;;;;;;;4843679;29;20048;-78
2022/06/27 12:29:19;;;;;;;2.13;1.17;;;;;;;;;;4844927;29;20059;-79
2022/06/27 12:31:45;;;;;;;1.48;1.17;;;;;;;;;;4820320;29;20046;-78
2022/06/27 12:34:11;;;;;;;1.20;1.10;;;;;;;;;;4845674;29;20395;-79
2022/06/27 12:36:37;;;;;;;2.40;1.40;;;;;;;;;;4843850;29;20056;-77
2022/06/27 12:39:04;;;;;;;1.27;1.17;;;;;;;;;;4843166;29;20056;-75
2022/06/27 12:41:30;;;;;;;1.77;1.10;;;;;;;;;;4847604;29;20038;-76
2022/06/27 12:43:57;;;;;;;2.85;1.23;;;;;;;;;;4842718;29;20045;-77
2022/06/27 12:46:23;;;;;;;1.50;1.40;;;;;;;;;;4843967;29;20040;-77
2022/06/27 12:48:49;;;;;;;2.47;1.60;;;;;;;;;;4849754;29;20427;-75
2022/06/27 12:51:15;;;;;;;1.98;1.30;;;;;;;;;;4848523;29;20054;-75
2022/06/27 12:53:41;;;;;;;1.75;1.20;;;;;;;;;;4846790;29;20038;-77
2022/06/27 12:56:08;;;;;;;2.63;1.33;;;;;;;;;;4851446;29;20037;-76
2022/06/27 12:58:34;;;;;;;2.65;1.02;;;;;;;;;;4850773;29;20030;-77
2022/06/27 13:01:00;;;;;;;1.25;1.10;;;;;;;;;;4844315;29;20052;-78
2022/06/27 13:03:26;;;;;;;1.25;1.10;;;;;;;;;;4847057;29;20046;-78
2022/06/27 13:05:51;;;;;;;1.30;1.20;;;;;;;;;;4843319;29;20182;-78
2022/06/27 13:08:17;;;;;;;1.75;1.38;;;;;;;;;;4845577;29;20141;-77
2022/06/27 13:10:43;;;;;;;1.50;1.27;;;;;;;;;;4843013;29;20412;-75
2022/06/27 13:13:08;;;;;;;2.58;1.20;;;;;;;;;;4843138;29;20125;-78
2022/06/27 13:15:35;;;;;;;4.38;1.20;;;;;;;;;;4842448;29;20124;-78
2022/06/27 13:18:05;;;;;;;1.55;1.10;;;;;;;;;;4827808;29;20041;-77
2022/06/27 13:20:32;;;;;;;1.48;1.38;;;;;;;;;;4842729;29;20440;-77
2022/06/27 13:22:58;;;;;;;1.40;1.10;;;;;;;;;;4839451;29;20398;-78
2022/06/27 13:25:23;;;;;;;3.28;1.35;;;;;;;;;;4844835;29;20109;-76
2022/06/27 13:27:49;;;;;;;2.08;1.00;;;;;;;;;;4840786;29;20042;-77
2022/06/27 13:30:15;;;;;;;2.83;1.20;;;;;;;;;;4841142;29;20178;-77
2022/06/27 13:32:40;;;;;;;1.35;1.20;;;;;;;;;;4844423;29;20590;-78
2022/06/27 13:35:07;;;;;;;1.67;1.20;;;;;;;;;;4849140;29;20058;-78
2022/06/27 13:37:33;;;;;;;1.90;1.30;;;;;;;;;;4840119;29;20055;-78
2022/06/27 13:39:58;;;;;;;2.00;1.10;;;;;;;;;;4843312;29;20049;-76
2022/06/27 13:42:24;;;;;;;2.45;1.25;;;;;;;;;;4830057;29;20134;-78
2022/06/27 13:44:49;;;;;;;2.80;1.55;;;;;;;;;;4823529;29;20483;-77
2022/06/27 13:47:15;;;;;;;2.38;1.00;;;;;;;;;;4841433;29;20053;-76
2022/06/27 13:49:40;;;;;;;1.60;1.00;;;;;;;;;;4839575;29;20029;-76
2022/06/27 13:52:06;;;;;;;1.77;1.27;;;;;;;;;;4842646;29;20127;-76
2022/06/27 13:54:32;;;;;;;2.65;0.90;;;;;;;;;;4842791;29;20038;-76
2022/06/27 13:56:57;;;;;;;1.23;1.10;;;;;;;;;;4841462;29;20057;-77
2022/06/27 13:59:23;;;;;;;1.48;1.13;;;;;;;;;;4822676;29;20459;-77
2022/06/27 14:01:48;;;;;;;1.48;1.08;;;;;;;;;;4840652;29;20032;-78
2022/06/27 14:04:13;;;;;;;2.63;0.90;;;;;;;;;;4829646;29;20502;-76
2022/06/27 14:09:23;;;;;;;1.00;1.00;;;;;;;;;;4837735;29;20187;-75
2022/06/27 14:11:48;;;;;;;1.80;1.10;;;;;;;;;;4842155;29;20510;-75
2022/06/27 14:14:14;;;;;;;3.42;1.27;;;;;;;;;;4842861;29;20034;-76
2022/06/27 14:16:40;;;;;;;4.50;1.35;;;;;;;;;;4839766;29;20390;-74
2022/06/27 14:19:05;;;;;;;1.20;1.05;;;;;;;;;;4836690;29;20514;-77
2022/06/27 14:21:31;;;;;;;1.88;1.02;;;;;;;;;;4838722;29;20060;-76
2022/06/27 14:23:57;;;;;;;1.77;1.13;;;;;;;;;;4822299;29;20042;-78
2022/06/27 14:26:23;;;;;;;3.40;1.10;;;;;;;;;;4840366;29;20054;-77
2022/06/27 14:28:48;;;;;;;1.30;0.98;;;;;;;;;;4841826;29;20033;-74
2022/06/27 14:31:14;;;;;;;1.00;0.90;;;;;;;;;;4840715;29;20508;-77
2022/06/27 14:33:40;;;;;;;3.05;1.27;;;;;;;;;;4826935;29;20056;-75
2022/06/27 14:36:08;;;;;;;2.42;1.00;;;;;;;;;;4828021;29;20038;-78
2022/06/27 14:38:34;;;;;;;1.75;1.08;;;;;;;;;;4849787;29;20422;-76
2022/06/27 14:40:59;;;;;;;1.58;1.00;;;;;;;;;;4842858;29;20032;-77
2022/06/27 14:43:26;;;;;;;1.08;0.95;;;;;;;;;;4849084;29;20037;-76
2022/06/27 14:45:51;;;;;;;3.38;1.15;;;;;;;;;;4833843;29;20069;-77
2022/06/27 14:48:17;;;;;;;2.08;1.25;;;;;;;;;;4847035;29;20066;-78
2022/06/27 14:50:42;;;;;;;2.40;1.10;;;;;;;;;;4843138;29;20054;-75
2022/06/27 14:53:08;;;;;;;0.93;0.93;;;;;;;;;;4843997;29;20041;-76
2022/06/27 14:55:34;;;;;;;0.70;0.70;;;;;;;;;;4842228;29;20034;-76